Time;durP1;ratioP1;P1;durP2;ratioP2;P2;SDS_P1;SDS_P2;PMS_P1;PMS_P2;Temp;Humidity;BMP_temperature;BMP_pressure;BME280_temperature;BME280_humidity;BME280_pressure;Samples;Min_cycle;Max_cycle;Signal;HPM_P1;HPM_P2
2023/08/21 00:01:36;;;;;;;10.80;8.02;;;15.30;99.90;;;;;;5137009;27;20034;-81
2023/08/21 00:04:02;;;;;;;10.55;8.45;;;15.30;99.90;;;;;;5137080;27;20361;-81
2023/08/21 00:06:28;;;;;;;12.40;8.23;;;15.30;99.90;;;;;;5154318;27;20037;-81
2023/08/21 00:08:54;;;;;;;10.30;8.48;;;15.30;99.90;;;;;;5140366;27;20494;-81
2023/08/21 00:11:20;;;;;;;9.10;8.20;;;15.30;99.90;;;;;;5133066;27;20098;-81
2023/08/21 00:13:47;;;;;;;12.18;8.65;;;15.20;99.90;;;;;;5152033;27;20088;-81
2023/08/21 00:16:13;;;;;;;8.70;7.68;;;15.10;99.90;;;;;;5116044;27;20399;-80
2023/08/21 00:18:39;;;;;;;13.07;8.95;;;15.10;99.90;;;;;;5116252;27;20487;-81
2023/08/21 00:21:05;;;;;;;11.00;8.85;;;15.10;99.90;;;;;;5151998;27;20444;-81
2023/08/21 00:23:31;;;;;;;10.80;8.25;;;15.10;99.90;;;;;;5139751;27;20077;-81
2023/08/21 00:25:57;;;;;;;9.93;8.38;;;15.10;99.90;;;;;;5136382;27;20034;-81
2023/08/21 00:28:22;;;;;;;11.80;8.90;;;15.10;99.90;;;;;;5136185;27;20034;-81
2023/08/21 00:30:48;;;;;;;9.20;8.07;;;15.00;99.90;;;;;;5136544;27;20125;-81
2023/08/21 00:33:14;;;;;;;9.88;7.95;;;15.00;99.90;;;;;;5153880;27;20372;-81
2023/08/21 00:35:39;;;;;;;8.18;7.20;;;15.00;99.90;;;;;;5153776;27;20159;-80
2023/08/21 00:38:05;;;;;;;12.73;9.85;;;15.10;99.90;;;;;;5165504;27;20403;-81
2023/08/21 00:40:31;;;;;;;10.70;7.95;;;15.00;99.90;;;;;;5115615;27;20441;-81
2023/08/21 00:42:57;;;;;;;9.45;8.23;;;14.90;99.90;;;;;;5115386;27;20066;-81
2023/08/21 00:45:22;;;;;;;13.70;9.43;;;14.90;99.90;;;;;;5151046;27;20069;-81
2023/08/21 00:47:48;;;;;;;10.55;6.97;;;14.90;99.90;;;;;;5132238;27;20138;-80
2023/08/21 00:50:15;;;;;;;10.85;8.13;;;14.90;99.90;;;;;;5115215;27;20107;-80
2023/08/21 00:52:44;;;;;;;14.18;8.32;;;14.90;99.90;;;;;;5136586;27;20635;-81
2023/08/21 00:55:11;;;;;;;11.13;9.23;;;14.90;99.90;;;;;;5153052;27;20090;-81
2023/08/21 00:57:38;;;;;;;9.95;7.90;;;14.80;99.90;;;;;;5135641;27;20499;-81
2023/08/21 01:00:05;;;;;;;9.82;7.75;;;14.90;99.90;;;;;;5171740;27;20038;-81
2023/08/21 01:02:30;;;;;;;9.60;8.00;;;14.80;99.90;;;;;;5152784;27;20037;-81
2023/08/21 01:04:56;;;;;;;8.75;7.60;;;14.70;99.90;;;;;;5135698;27;20037;-81
2023/08/21 01:07:22;;;;;;;9.70;8.20;;;14.70;99.90;;;;;;5148094;27;20369;-80
2023/08/21 01:10:03;;;;;;;10.43;8.88;;;14.70;99.90;;;;;;5132233;27;20485;-80
2023/08/21 01:12:29;;;;;;;9.50;8.70;;;14.70;99.90;;;;;;5132036;27;20122;-81
2023/08/21 01:15:06;;;;;;;10.45;8.57;;;14.60;99.90;;;;;;5132251;27;20110;-81
2023/08/21 01:17:35;;;;;;;11.75;8.20;;;14.60;99.90;;;;;;5150783;27;20111;-81
2023/08/21 01:20:02;;;;;;;12.27;9.05;;;14.50;99.90;;;;;;5115064;27;20437;-80
2023/08/21 01:22:39;;;;;;;8.48;7.43;;;14.50;99.90;;;;;;5138243;27;20483;-81
2023/08/21 01:25:05;;;;;;;9.88;8.98;;;14.50;99.90;;;;;;5135143;27;20042;-81
2023/08/21 01:27:32;;;;;;;9.15;7.95;;;14.50;99.90;;;;;;5171351;27;20046;-81
2023/08/21 01:29:59;;;;;;;10.85;9.18;;;14.40;99.90;;;;;;5135520;27;20105;-81
2023/08/21 01:32:48;;;;;;;10.80;9.77;;;14.40;99.90;;;;;;5152601;27;20136;-81
2023/08/21 01:35:14;;;;;;;10.50;9.35;;;14.40;99.90;;;;;;5171044;27;20123;-80
2023/08/21 01:37:40;;;;;;;13.55;10.63;;;14.40;99.90;;;;;;5123599;27;20042;-81
2023/08/21 01:40:07;;;;;;;11.20;9.55;;;14.40;99.90;;;;;;5114825;27;20039;-81
2023/08/21 01:42:32;;;;;;;10.90;9.52;;;14.40;99.90;;;;;;5131844;27;20043;-81
2023/08/21 01:44:58;;;;;;;10.57;9.48;;;14.40;99.90;;;;;;5131963;27;20039;-81
2023/08/21 01:47:24;;;;;;;11.07;10.15;;;14.40;99.90;;;;;;5114430;27;20047;-80
2023/08/21 01:49:52;;;;;;;9.95;8.80;;;14.30;99.90;;;;;;5131598;27;20027;-81
2023/08/21 01:52:20;;;;;;;10.23;9.20;;;14.30;99.90;;;;;;5159335;27;20498;-80
2023/08/21 01:54:47;;;;;;;12.43;8.40;;;14.30;99.90;;;;;;5135400;27;20082;-80
2023/08/21 01:57:13;;;;;;;12.60;8.70;;;14.40;99.90;;;;;;5134729;27;20038;-81
2023/08/21 01:59:39;;;;;;;8.98;7.88;;;14.30;99.90;;;;;;5156602;27;20121;-80
2023/08/21 02:02:05;;;;;;;10.77;8.20;;;14.20;99.90;;;;;;5139469;27;20056;-80
2023/08/21 02:04:30;;;;;;;9.35;8.38;;;14.20;99.90;;;;;;5175060;27;20499;-80
2023/08/21 02:06:56;;;;;;;10.88;8.05;;;14.20;99.90;;;;;;5138617;27;20394;-80
2023/08/21 02:09:22;;;;;;;9.48;8.52;;;14.10;99.90;;;;;;5156426;27;20483;-81
2023/08/21 02:11:47;;;;;;;12.82;9.23;;;14.20;99.90;;;;;;5137752;27;20034;-80
2023/08/21 02:14:13;;;;;;;10.05;8.10;;;14.10;99.90;;;;;;5135971;27;20361;-80
2023/08/21 02:16:38;;;;;;;11.20;8.98;;;14.10;99.90;;;;;;5135631;27;20041;-80
2023/08/21 02:19:04;;;;;;;9.18;8.10;;;14.10;99.90;;;;;;5154198;27;20026;-81
2023/08/21 02:21:30;;;;;;;12.68;8.80;;;14.00;99.90;;;;;;5135313;27;20480;-81
2023/08/21 02:23:55;;;;;;;9.57;8.68;;;14.10;99.90;;;;;;5118166;27;20618;-81
2023/08/21 02:26:21;;;;;;;12.18;8.98;;;14.00;99.90;;;;;;5153963;27;20399;-81
2023/08/21 02:28:46;;;;;;;10.25;8.98;;;14.00;99.90;;;;;;5133298;27;20031;-80
2023/08/21 02:31:12;;;;;;;8.60;7.70;;;14.00;99.90;;;;;;5114703;27;20445;-81
2023/08/21 02:33:38;;;;;;;12.68;9.30;;;13.90;99.90;;;;;;5114578;27;20031;-81
2023/08/21 02:36:04;;;;;;;10.15;8.60;;;13.90;99.90;;;;;;5114175;27;20043;-80
2023/08/21 02:38:30;;;;;;;10.55;9.02;;;13.90;99.90;;;;;;5114634;27;20039;-81
2023/08/21 02:40:55;;;;;;;9.98;9.02;;;13.80;99.90;;;;;;5114763;27;20047;-81
2023/08/21 02:43:21;;;;;;;10.50;8.68;;;13.90;99.90;;;;;;5171234;27;20041;-81
2023/08/21 02:45:47;;;;;;;23.58;9.82;;;13.80;99.90;;;;;;5138696;27;20053;-81
2023/08/21 02:48:12;;;;;;;8.80;7.78;;;13.80;99.90;;;;;;5138310;27;20073;-81
2023/08/21 02:50:38;;;;;;;8.18;7.50;;;13.80;99.90;;;;;;5155435;27;20459;-81
2023/08/21 02:53:04;;;;;;;10.98;8.45;;;13.70;99.90;;;;;;5155841;27;20030;-80
2023/08/21 02:55:29;;;;;;;10.85;8.25;;;13.70;99.90;;;;;;5138255;27;20036;-81
2023/08/21 02:57:55;;;;;;;9.02;8.10;;;13.70;99.90;;;;;;5173933;27;20049;-81
2023/08/21 03:00:21;;;;;;;12.57;7.97;;;13.70;99.90;;;;;;5138408;27;20038;-81
2023/08/21 03:02:46;;;;;;;9.20;8.27;;;13.80;99.90;;;;;;5137974;27;20160;-80
2023/08/21 03:05:14;;;;;;;9.80;8.88;;;13.70;99.90;;;;;;5138211;27;20038;-81
2023/08/21 03:07:39;;;;;;;9.80;8.98;;;13.60;99.90;;;;;;5155377;27;20043;-80
2023/08/21 03:10:07;;;;;;;9.98;8.43;;;13.60;99.90;;;;;;5136794;27;20172;-81
2023/08/21 03:12:33;;;;;;;9.25;7.75;;;13.60;99.90;;;;;;5121423;27;20045;-81
2023/08/21 03:14:58;;;;;;;9.15;8.25;;;13.60;99.90;;;;;;5134785;27;20034;-80
2023/08/21 03:17:24;;;;;;;12.43;8.52;;;13.60;99.90;;;;;;5116848;27;20050;-81
2023/08/21 03:19:50;;;;;;;9.80;8.10;;;13.60;99.90;;;;;;5134682;27;20042;-80
2023/08/21 03:22:15;;;;;;;11.20;8.05;;;13.60;99.90;;;;;;5134380;27;20497;-80
2023/08/21 03:24:41;;;;;;;11.75;8.13;;;13.60;99.90;;;;;;5153107;27;20492;-80
2023/08/21 03:27:07;;;;;;;10.57;7.47;;;13.60;99.90;;;;;;5134144;27;20113;-81
2023/08/21 03:29:32;;;;;;;10.95;8.73;;;13.60;99.90;;;;;;5134200;27;20031;-81
2023/08/21 03:31:58;;;;;;;8.63;7.55;;;13.60;99.90;;;;;;5133601;27;20034;-80
2023/08/21 03:34:24;;;;;;;9.60;7.90;;;13.60;99.90;;;;;;5133944;27;20034;-81
2023/08/21 03:36:50;;;;;;;10.43;7.25;;;13.50;99.90;;;;;;5152949;27;20526;-81
2023/08/21 03:39:15;;;;;;;10.27;8.38;;;13.50;99.90;;;;;;5134303;27;20095;-81
2023/08/21 03:41:41;;;;;;;11.73;8.38;;;13.50;99.90;;;;;;5147163;27;20117;-81
2023/08/21 03:44:06;;;;;;;9.10;8.20;;;13.50;99.90;;;;;;5137663;27;20060;-81
2023/08/21 03:46:32;;;;;;;9.48;8.07;;;13.50;99.90;;;;;;5154006;27;20038;-80
2023/08/21 03:48:58;;;;;;;8.77;7.85;;;13.50;99.90;;;;;;5137405;27;20399;-80
2023/08/21 03:51:23;;;;;;;9.90;8.60;;;13.50;99.90;;;;;;5173208;27;20441;-81
2023/08/21 03:53:50;;;;;;;8.65;7.85;;;13.50;99.90;;;;;;5137075;27;20465;-81
2023/08/21 03:56:15;;;;;;;9.48;8.25;;;13.50;99.90;;;;;;5136794;27;20107;-81
2023/08/21 03:58:41;;;;;;;10.88;8.70;;;13.40;99.90;;;;;;5140855;27;20030;-81
2023/08/21 04:01:07;;;;;;;10.80;9.55;;;13.40;99.90;;;;;;5154059;27;20495;-82
2023/08/21 04:03:33;;;;;;;8.48;7.22;;;13.40;99.90;;;;;;5138128;27;20042;-80
2023/08/21 04:05:59;;;;;;;10.02;7.82;;;13.40;99.90;;;;;;5136821;27;20086;-81
2023/08/21 04:08:25;;;;;;;10.55;8.65;;;13.40;99.90;;;;;;5173015;27;20481;-81
2023/08/21 04:10:52;;;;;;;9.05;7.80;;;13.20;99.90;;;;;;5162149;27;20033;-81
2023/08/21 04:13:18;;;;;;;13.48;8.77;;;13.30;99.90;;;;;;5133581;27;20388;-81
2023/08/21 04:15:50;;;;;;;11.77;7.63;;;13.30;99.90;;;;;;5132776;27;20031;-81
2023/08/21 04:18:15;;;;;;;11.40;8.50;;;13.60;99.90;;;;;;5116403;27;20407;-81
2023/08/21 04:20:41;;;;;;;11.07;8.80;;;13.30;99.90;;;;;;5133045;27;20042;-80
2023/08/21 04:23:07;;;;;;;9.60;7.82;;;13.30;99.90;;;;;;5151405;27;20055;-81
2023/08/21 04:25:32;;;;;;;10.68;8.30;;;13.30;99.90;;;;;;5132900;27;20478;-81
2023/08/21 04:27:58;;;;;;;9.60;8.45;;;13.30;99.90;;;;;;5116008;27;20074;-80
2023/08/21 04:30:24;;;;;;;10.60;9.50;;;13.30;99.90;;;;;;5150891;27;20037;-81
2023/08/21 04:32:49;;;;;;;9.68;7.97;;;13.30;99.90;;;;;;5116097;27;20499;-81
2023/08/21 04:35:15;;;;;;;8.80;8.00;;;13.30;99.90;;;;;;5132598;27;20045;-81
2023/08/21 04:37:47;;;;;;;10.00;7.82;;;13.30;99.90;;;;;;5151572;27;20042;-80
2023/08/21 04:40:13;;;;;;;8.13;7.43;;;13.30;99.90;;;;;;5137554;27;20041;-80
2023/08/21 04:42:39;;;;;;;9.30;6.95;;;13.30;99.90;;;;;;5136265;27;20034;-80
2023/08/21 04:45:05;;;;;;;7.90;7.10;;;13.30;99.90;;;;;;5171841;27;20089;-80
2023/08/21 04:47:31;;;;;;;9.35;7.65;;;13.30;99.90;;;;;;5135937;27;20526;-80
2023/08/21 04:49:57;;;;;;;9.25;7.30;;;13.30;99.90;;;;;;5136128;27;20030;-81
2023/08/21 04:52:24;;;;;;;8.30;6.95;;;13.40;99.90;;;;;;5153247;27;20034;-80
2023/08/21 04:54:50;;;;;;;9.32;7.10;;;13.40;99.90;;;;;;5149297;27;20031;-80
2023/08/21 04:57:17;;;;;;;9.20;7.65;;;13.40;99.90;;;;;;5132694;27;20388;-80
2023/08/21 04:59:43;;;;;;;7.28;6.57;;;13.60;99.90;;;;;;5150821;27;20039;-81
2023/08/21 05:02:08;;;;;;;9.90;6.45;;;13.50;99.90;;;;;;5132263;27;20049;-80
2023/08/21 05:04:36;;;;;;;7.95;7.15;;;13.50;99.90;;;;;;5150958;27;20428;-80
2023/08/21 05:07:02;;;;;;;8.15;7.32;;;13.60;99.90;;;;;;5132506;27;20034;-81
2023/08/21 05:09:28;;;;;;;8.07;6.55;;;13.60;99.90;;;;;;5132132;27;20130;-81
2023/08/21 05:11:55;;;;;;;8.52;7.65;;;13.70;99.90;;;;;;5132154;27;20144;-81
2023/08/21 05:14:21;;;;;;;9.80;7.22;;;13.60;99.90;;;;;;5131687;27;20446;-81
2023/08/21 05:16:47;;;;;;;10.38;7.00;;;13.60;99.90;;;;;;5115324;27;20121;-80
2023/08/21 05:19:12;;;;;;;8.57;6.80;;;13.80;99.90;;;;;;5114958;27;20488;-81
2023/08/21 05:21:38;;;;;;;8.98;7.35;;;13.80;99.90;;;;;;5114721;27;20041;-81
2023/08/21 05:24:04;;;;;;;8.48;6.47;;;13.80;99.90;;;;;;5132996;27;20096;-80
2023/08/21 05:26:30;;;;;;;8.35;6.60;;;13.80;99.90;;;;;;5152327;27;20045;-80
2023/08/21 05:28:55;;;;;;;11.00;6.32;;;13.90;99.90;;;;;;5134872;27;20038;-81
2023/08/21 05:31:21;;;;;;;7.47;6.38;;;14.00;99.90;;;;;;5134958;27;20077;-81
2023/08/21 05:33:46;;;;;;;8.27;5.85;;;14.00;99.90;;;;;;5135576;27;20034;-80
2023/08/21 05:36:12;;;;;;;6.82;5.80;;;14.10;99.90;;;;;;5135531;27;20034;-80
2023/08/21 05:38:38;;;;;;;7.32;5.93;;;14.10;99.90;;;;;;5152282;27;20042;-80
2023/08/21 05:41:04;;;;;;;8.15;5.82;;;14.20;99.90;;;;;;5151797;27;20042;-81
2023/08/21 05:43:30;;;;;;;7.72;5.97;;;14.20;99.90;;;;;;5152350;27;20049;-80
2023/08/21 05:45:56;;;;;;;6.30;5.47;;;14.40;99.90;;;;;;5152579;27;20034;-81
2023/08/21 05:48:21;;;;;;;7.80;5.35;;;14.50;99.90;;;;;;5135107;27;20030;-81
2023/08/21 05:50:51;;;;;;;7.80;5.40;;;14.70;99.90;;;;;;5152385;27;20404;-81
2023/08/21 05:53:17;;;;;;;12.23;6.30;;;15.00;99.90;;;;;;5152629;27;20496;-81
2023/08/21 05:55:43;;;;;;;6.90;4.60;;;16.10;99.90;;;;;;5115186;27;20091;-81
2023/08/21 05:58:08;;;;;;;4.65;3.47;;;17.40;99.90;;;;;;5114407;27;20091;-81
2023/08/21 06:00:34;;;;;;;6.50;4.10;;;18.70;99.90;;;;;;5114775;27;20070;-81
2023/08/21 06:03:00;;;;;;;6.50;4.20;;;19.80;99.90;;;;;;5131641;27;20103;-80
2023/08/21 06:05:26;;;;;;;7.20;3.65;;;20.80;99.90;;;;;;5131641;27;20092;-81
2023/08/21 06:07:52;;;;;;;6.85;3.95;;;21.60;99.90;;;;;;5131644;27;20122;-81
2023/08/21 06:10:23;;;;;;;5.13;4.00;;;22.30;99.90;;;;;;5131348;27;20080;-81
2023/08/21 06:12:51;;;;;;;5.93;3.92;;;22.90;99.90;;;;;;5132435;27;20504;-81
2023/08/21 06:15:17;;;;;;;7.25;5.30;;;23.40;99.90;;;;;;5131855;27;20384;-81
2023/08/21 06:17:42;;;;;;;8.38;7.43;;;23.90;99.90;;;;;;5131512;27;20042;-80
2023/08/21 06:20:08;;;;;;;7.43;6.72;;;24.30;99.90;;;;;;5131815;27;20535;-81
2023/08/21 06:22:35;;;;;;;5.47;4.75;;;24.80;99.90;;;;;;5131281;27;20125;-81
2023/08/21 06:25:01;;;;;;;6.43;5.82;;;25.30;99.90;;;;;;5143694;27;20257;-81
2023/08/21 06:27:27;;;;;;;8.45;7.03;;;25.70;99.90;;;;;;5170093;27;20571;-81
2023/08/21 06:29:52;;;;;;;6.63;5.57;;;26.00;99.90;;;;;;5170659;27;20038;-81
2023/08/21 06:32:18;;;;;;;12.02;8.05;;;26.40;99.90;;;;;;5152180;27;20114;-82
2023/08/21 06:34:44;;;;;;;22.30;20.67;;;26.70;99.90;;;;;;5135060;27;20039;-81
2023/08/21 06:37:09;;;;;;;59.00;54.08;;;26.80;99.90;;;;;;5152098;27;20235;-81
2023/08/21 06:39:35;;;;;;;221.63;202.23;;;27.00;99.90;;;;;;5151905;27;20048;-81
2023/08/21 06:42:01;;;;;;;143.85;124.68;;;27.20;99.90;;;;;;5134024;27;20389;-81
2023/08/21 06:44:27;;;;;;;762.53;548.40;;;27.60;99.90;;;;;;5137871;27;20295;-81
2023/08/21 06:46:53;;;;;;;784.85;583.17;;;28.00;99.90;;;;;;5138708;27;20042;-82
2023/08/21 06:49:18;;;;;;;1190.25;784.50;;;28.20;99.90;;;;;;5138394;27;20574;-81
2023/08/21 06:51:44;;;;;;;1443.97;820.28;;;28.60;99.90;;;;;;5174488;27;20048;-81
2023/08/21 06:54:10;;;;;;;1999.90;979.50;;;28.70;99.90;;;;;;5133665;27;20154;-82
2023/08/21 06:56:36;;;;;;;1943.70;512.90;;;28.80;99.90;;;;;;5117094;27;20400;-81
2023/08/21 06:59:02;;;;;;;1750.32;386.52;;;28.70;99.90;;;;;;5117930;27;20081;-81
2023/08/21 07:01:28;;;;;;;1961.75;517.30;;;27.80;99.90;;;;;;5134958;27;20042;-81
2023/08/21 07:03:54;;;;;;;1934.07;514.40;;;26.80;99.90;;;;;;5134683;27;20035;-81
2023/08/21 07:06:20;;;;;;;1839.28;903.05;;;26.00;99.90;;;;;;5117538;27;20047;-81
2023/08/21 07:08:45;;;;;;;742.95;492.42;;;25.20;99.90;;;;;;5155966;27;20030;-81
2023/08/21 07:11:12;;;;;;;1297.32;752.30;;;24.70;99.90;;;;;;5137598;27;20045;-81
2023/08/21 07:13:38;;;;;;;1470.18;643.85;;;24.20;99.90;;;;;;5155362;27;20031;-81
2023/08/21 07:16:05;;;;;;;616.03;239.73;;;23.90;99.90;;;;;;5138007;27;20118;-81
2023/08/21 07:18:35;;;;;;;521.03;252.63;;;23.60;99.90;;;;;;5155176;27;20083;-81
2023/08/21 07:21:01;;;;;;;292.58;148.75;;;23.30;99.90;;;;;;5152725;27;20045;-81
2023/08/21 07:23:27;;;;;;;240.88;147.73;;;23.00;99.90;;;;;;5113642;27;20452;-81
2023/08/21 07:25:53;;;;;;;204.60;108.75;;;22.90;99.90;;;;;;5113091;27;20615;-81
2023/08/21 07:28:18;;;;;;;98.45;70.68;;;22.80;99.90;;;;;;5113787;27;20039;-81
2023/08/21 07:30:44;;;;;;;69.40;62.38;;;22.70;99.90;;;;;;5114052;27;20035;-81
2023/08/21 07:33:10;;;;;;;131.65;117.18;;;22.60;99.90;;;;;;5113605;27;20481;-81
2023/08/21 07:35:36;;;;;;;135.15;116.72;;;22.60;99.90;;;;;;5113576;27;20388;-81
2023/08/21 07:38:01;;;;;;;91.90;82.03;;;22.50;99.90;;;;;;5113493;27;20453;-81
2023/08/21 07:40:27;;;;;;;103.78;92.47;;;22.50;99.90;;;;;;5130227;27;20441;-81
2023/08/21 07:42:53;;;;;;;92.05;81.03;;;22.50;99.90;;;;;;5113497;27;20031;-81
2023/08/21 07:45:19;;;;;;;89.35;71.82;;;22.50;99.90;;;;;;5113324;27;20032;-81
2023/08/21 07:47:45;;;;;;;357.60;246.75;;;22.50;99.90;;;;;;5129791;27;20100;-82
2023/08/21 07:50:10;;;;;;;231.38;166.30;;;22.40;99.90;;;;;;5131054;27;20070;-81
2023/08/21 07:52:36;;;;;;;261.75;155.27;;;22.70;99.90;;;;;;5132380;27;20070;-81
2023/08/21 07:55:03;;;;;;;342.65;226.52;;;23.10;99.90;;;;;;5132094;27;20035;-81
2023/08/21 07:57:29;;;;;;;663.40;372.05;;;23.40;99.90;;;;;;5151741;27;20095;-81
2023/08/21 07:59:55;;;;;;;759.47;448.15;;;23.40;99.90;;;;;;5133571;27;20038;-81
2023/08/21 08:02:21;;;;;;;841.50;499.92;;;23.30;99.90;;;;;;5150430;27;20081;-81
2023/08/21 08:04:47;;;;;;;511.77;290.55;;;23.20;99.90;;;;;;5150204;27;20491;-82
2023/08/21 08:07:12;;;;;;;522.30;326.40;;;23.10;99.90;;;;;;5132715;27;20045;-81
2023/08/21 08:09:39;;;;;;;452.25;248.65;;;23.10;99.90;;;;;;5150503;27;20098;-81
2023/08/21 08:12:05;;;;;;;511.48;324.80;;;23.10;99.90;;;;;;5133313;27;20042;-81
2023/08/21 08:14:31;;;;;;;984.13;531.33;;;23.90;99.90;;;;;;5133480;27;20041;-81
2023/08/21 08:16:56;;;;;;;1999.90;983.05;;;25.20;99.90;;;;;;5150660;27;20113;-81
2023/08/21 08:19:22;;;;;;;1999.90;925.97;;;25.80;99.90;;;;;;5133265;27;20035;-81
2023/08/21 08:21:48;;;;;;;1999.90;957.78;;;26.70;99.90;;;;;;5132841;27;20234;-81
2023/08/21 08:24:13;;;;;;;1999.90;999.90;;;27.50;99.90;;;;;;5111897;27;20051;-81
2023/08/21 08:26:40;;;;;;;1862.22;444.60;;;27.80;99.90;;;;;;5131181;27;20034;-82
2023/08/21 08:29:06;;;;;;;1730.55;405.52;;;28.10;99.90;;;;;;5112454;27;20031;-81
2023/08/21 08:31:32;;;;;;;1337.70;197.65;;;28.10;99.90;;;;;;5112591;27;20444;-81
2023/08/21 08:33:57;;;;;;;1639.18;775.25;;;28.30;99.90;;;;;;5129492;27;20024;-81
2023/08/21 08:36:23;;;;;;;1999.90;999.90;;;28.10;99.90;;;;;;5128910;27;20496;-81
2023/08/21 08:38:49;;;;;;;1999.90;999.90;;;27.90;99.90;;;;;;5131069;27;20088;-81
2023/08/21 08:41:28;;;;;;;1999.90;999.90;;;27.70;99.90;;;;;;5129729;27;20496;-82
2023/08/21 08:43:57;;;;;;;1999.90;999.90;;;27.30;99.90;;;;;;5129481;27;20104;-81
2023/08/21 08:46:24;;;;;;;1999.90;999.90;;;27.00;99.90;;;;;;5129733;27;20512;-81
2023/08/21 08:48:53;;;;;;;1999.90;999.90;;;26.80;99.90;;;;;;5129472;27;20039;-81
2023/08/21 08:51:19;;;;;;;1999.90;999.90;;;26.60;99.90;;;;;;5146507;27;20039;-82
2023/08/21 08:53:45;;;;;;;1999.90;999.90;;;26.40;99.90;;;;;;5132982;27;20037;-82
2023/08/21 08:56:11;;;;;;;1999.90;999.90;;;26.20;99.90;;;;;;5132554;27;20473;-81
2023/08/21 08:58:36;;;;;;;1999.90;999.90;;;26.20;99.90;;;;;;5132564;27;20114;-82
2023/08/21 09:01:02;;;;;;;1999.90;999.90;;;26.30;99.90;;;;;;5149742;27;20039;-81
2023/08/21 09:03:29;;;;;;;1999.90;999.90;;;26.40;99.90;;;;;;5151126;27;20034;-81
2023/08/21 09:05:54;;;;;;;1999.90;999.90;;;26.60;99.90;;;;;;5131641;27;20171;-81
2023/08/21 09:08:20;;;;;;;1999.90;999.90;;;27.00;99.90;;;;;;5150875;27;20114;-82
2023/08/21 09:10:46;;;;;;;1999.90;999.90;;;27.20;99.90;;;;;;5132473;27;20034;-81
2023/08/21 09:13:17;;;;;;;1999.90;999.90;;;27.70;99.90;;;;;;5132218;27;20049;-81
2023/08/21 09:15:48;;;;;;;1999.90;999.90;;;28.10;98.30;;;;;;5132366;27;20037;-81
2023/08/21 09:18:17;;;;;;;1999.90;999.90;;;28.60;98.90;;;;;;5132530;27;20043;-82
2023/08/21 09:20:43;;;;;;;1999.90;999.90;;;28.90;99.20;;;;;;5132079;27;20422;-81
2023/08/21 09:23:17;;;;;;;1999.90;999.90;;;29.20;98.40;;;;;;5128599;27;20188;-81
2023/08/21 09:25:47;;;;;;;1999.90;999.90;;;29.60;98.40;;;;;;5111787;27;20046;-82
2023/08/21 09:28:14;;;;;;;1999.90;999.90;;;29.90;98.30;;;;;;5111773;27;20035;-82
2023/08/21 09:30:50;;;;;;;1999.90;999.90;;;30.10;98.10;;;;;;5111668;27;20041;-81
2023/08/21 09:33:20;;;;;;;1999.90;999.90;;;30.00;97.10;;;;;;5111545;27;20126;-81
2023/08/21 09:35:47;;;;;;;1999.90;999.90;;;30.20;97.60;;;;;;5128193;27;20035;-82
2023/08/21 09:38:14;;;;;;;1999.90;999.90;;;30.30;97.70;;;;;;5111590;27;20043;-81
2023/08/21 09:40:41;;;;;;;1999.90;999.90;;;30.10;97.80;;;;;;5128494;27;20042;-82
2023/08/21 09:43:10;;;;;;;1999.90;999.90;;;29.60;97.90;;;;;;5111707;27;20135;-81
2023/08/21 09:45:35;;;;;;;1999.90;999.90;;;28.90;98.10;;;;;;5111675;28;20138;-81
2023/08/21 09:48:03;;;;;;;1999.90;999.90;;;28.00;98.10;;;;;;5128572;28;20115;-81
2023/08/21 09:50:29;;;;;;;1999.90;999.90;;;27.60;98.90;;;;;;5142575;27;20046;-81
2023/08/21 09:52:56;;;;;;;1999.90;999.90;;;27.30;99.50;;;;;;5148800;27;20045;-81
2023/08/21 09:55:22;;;;;;;1999.90;999.90;;;27.10;99.70;;;;;;5132022;27;20070;-81
2023/08/21 09:57:56;;;;;;;1999.90;999.90;;;26.90;99.80;;;;;;5131632;27;20451;-81
2023/08/21 10:00:22;;;;;;;1999.90;999.90;;;26.70;99.10;;;;;;5149275;27;20043;-81
2023/08/21 10:02:50;;;;;;;1999.90;999.90;;;26.70;99.80;;;;;;5131910;27;20046;-82
2023/08/21 10:05:17;;;;;;;1999.90;999.90;;;26.70;99.90;;;;;;5131081;27;20041;-81
2023/08/21 10:07:55;;;;;;;1999.90;999.90;;;26.70;99.90;;;;;;5130561;27;20130;-81
2023/08/21 10:10:21;;;;;;;1999.90;999.90;;;26.70;99.90;;;;;;5107970;28;20035;-82
2023/08/21 10:12:48;;;;;;;1999.90;999.90;;;26.80;99.90;;;;;;5107822;28;20490;-81
2023/08/21 10:15:15;;;;;;;1999.90;999.90;;;26.70;99.50;;;;;;5090982;28;20031;-82
2023/08/21 10:17:43;;;;;;;1999.90;999.90;;;26.60;99.90;;;;;;5146316;27;20520;-81
2023/08/21 10:20:09;;;;;;;1999.90;999.90;;;26.70;99.90;;;;;;5135198;27;20053;-81
2023/08/21 10:22:52;;;;;;;1999.90;999.90;;;26.70;99.90;;;;;;5135450;27;20057;-81
2023/08/21 10:25:21;;;;;;;1999.90;999.90;;;26.80;99.90;;;;;;5152811;27;20083;-81
2023/08/21 10:27:55;;;;;;;1999.90;999.90;;;26.80;99.80;;;;;;5135646;27;20511;-81
2023/08/21 10:30:23;;;;;;;1999.90;999.90;;;26.80;99.70;;;;;;5152680;27;20078;-81
2023/08/21 10:32:51;;;;;;;1999.90;999.90;;;26.80;99.20;;;;;;5134975;27;20122;-80
2023/08/21 10:35:21;;;;;;;1999.90;999.90;;;26.80;99.20;;;;;;5134937;27;20476;-81
2023/08/21 10:38:10;;;;;;;1999.90;999.90;;;26.80;99.40;;;;;;5154132;27;20080;-81
2023/08/21 10:40:36;;;;;;;1999.90;999.90;;;26.90;99.70;;;;;;5152830;27;20047;-81
2023/08/21 10:43:02;;;;;;;1999.90;999.90;;;26.90;99.50;;;;;;5152552;27;20068;-81
2023/08/21 10:45:29;;;;;;;1999.90;999.90;;;27.00;99.70;;;;;;5152717;27;20069;-81
2023/08/21 10:47:59;;;;;;;1999.90;999.90;;;27.00;98.40;;;;;;5132141;27;20035;-81
2023/08/21 10:50:26;;;;;;;1999.90;999.90;;;26.90;98.20;;;;;;5131628;27;20035;-82
2023/08/21 10:52:53;;;;;;;1999.90;999.90;;;26.80;98.80;;;;;;5132075;27;20284;-81
2023/08/21 10:55:20;;;;;;;1999.90;999.90;;;26.80;99.40;;;;;;5114618;27;20039;-81
2023/08/21 10:57:51;;;;;;;1999.90;999.90;;;26.90;99.90;;;;;;5114303;27;20521;-81
2023/08/21 11:00:20;;;;;;;1999.90;999.90;;;27.00;99.00;;;;;;5131952;27;20039;-82
2023/08/21 11:02:47;;;;;;;1999.90;999.90;;;27.00;99.50;;;;;;5131281;27;20046;-81
2023/08/21 11:05:15;;;;;;;1999.90;999.90;;;27.10;99.30;;;;;;5131711;27;20039;-81
2023/08/21 11:07:45;;;;;;;1999.90;999.90;;;27.10;98.90;;;;;;5131320;27;20042;-81
2023/08/21 11:10:21;;;;;;;1999.90;999.90;;;27.20;99.10;;;;;;5131321;27;20122;-81
2023/08/21 11:12:59;;;;;;;1999.90;999.90;;;27.30;99.10;;;;;;5114234;27;20035;-81
2023/08/21 11:15:26;;;;;;;1999.90;999.90;;;27.50;99.60;;;;;;5131453;27;20035;-81
2023/08/21 11:17:59;;;;;;;1999.90;999.90;;;27.60;99.20;;;;;;5149497;27;20183;-82
2023/08/21 11:20:33;;;;;;;1999.90;999.90;;;27.70;99.10;;;;;;5134769;27;20400;-82
2023/08/21 11:23:07;;;;;;;1999.90;999.90;;;27.80;98.30;;;;;;5151597;27;20046;-82
2023/08/21 11:25:34;;;;;;;1999.90;999.90;;;27.60;98.80;;;;;;5152128;27;20074;-81
2023/08/21 11:28:02;;;;;;;1999.90;999.90;;;27.70;98.90;;;;;;5134320;27;20488;-81
2023/08/21 11:30:28;;;;;;;1999.90;999.90;;;27.60;98.60;;;;;;5133177;27;20039;-82
2023/08/21 11:33:13;;;;;;;1999.90;999.90;;;27.60;98.30;;;;;;5152633;27;20118;-81
2023/08/21 11:35:40;;;;;;;1999.90;999.90;;;27.30;98.20;;;;;;5151927;27;20399;-81
2023/08/21 11:38:06;;;;;;;1999.90;999.90;;;27.10;98.40;;;;;;5134225;27;20031;-81
2023/08/21 11:40:35;;;;;;;1999.90;999.90;;;27.00;98.40;;;;;;5134339;27;20041;-82
2023/08/21 11:43:01;;;;;;;1999.90;999.90;;;26.90;98.90;;;;;;5134244;27;20045;-82
2023/08/21 11:45:27;;;;;;;1999.90;999.90;;;27.00;98.20;;;;;;5151373;27;20156;-82
2023/08/21 11:47:56;;;;;;;1999.90;999.90;;;27.00;97.30;;;;;;5114929;27;20035;-81
2023/08/21 11:50:22;;;;;;;1999.90;999.90;;;27.00;97.50;;;;;;5132002;27;20087;-81
2023/08/21 11:52:52;;;;;;;1999.90;999.90;;;27.10;97.30;;;;;;5130740;27;20027;-81
2023/08/21 11:55:18;;;;;;;1999.90;999.90;;;27.20;98.40;;;;;;5113616;27;20422;-81
2023/08/21 11:57:52;;;;;;;1999.90;999.90;;;27.30;98.20;;;;;;5130539;27;20053;-81
2023/08/21 12:00:19;;;;;;;1999.90;999.90;;;27.60;97.30;;;;;;5129872;27;20172;-81
2023/08/21 12:02:56;;;;;;;1999.90;999.90;;;27.70;98.00;;;;;;5130773;27;20043;-82
2023/08/21 12:05:22;;;;;;;1999.90;999.90;;;27.90;98.10;;;;;;5113597;27;20099;-82
2023/08/21 12:07:47;;;;;;;1999.90;999.90;;;28.00;97.40;;;;;;5130404;27;20378;-82
2023/08/21 12:10:13;;;;;;;1999.90;999.90;;;28.10;96.90;;;;;;5113114;27;20041;-81
2023/08/21 12:12:41;;;;;;;1999.90;999.90;;;28.30;97.30;;;;;;5131310;27;20407;-81
2023/08/21 12:15:07;;;;;;;1999.90;999.90;;;28.20;96.70;;;;;;5112699;27;20070;-81
2023/08/21 12:17:33;;;;;;;1999.90;999.90;;;28.50;97.60;;;;;;5128644;27;20122;-82
2023/08/21 12:19:59;;;;;;;1999.90;999.90;;;28.60;97.60;;;;;;5150921;27;20459;-81
2023/08/21 12:22:25;;;;;;;1999.90;999.90;;;28.70;97.60;;;;;;5153780;27;20281;-81